createdAt,value
2023-05-19T00:00:03.947Z,8.30
2023-05-19T00:02:41.790Z,8.23
2023-05-19T00:05:13.260Z,8.18
2023-05-19T00:07:43.188Z,8.13
2023-05-19T00:10:17.464Z,8.10
2023-05-19T00:12:47.668Z,8.06
2023-05-19T00:15:18.434Z,8.01
2023-05-19T00:17:48.989Z,7.97
2023-05-19T00:20:18.986Z,7.92
2023-05-19T00:22:48.853Z,7.87
2023-05-19T00:25:21.191Z,7.82
2023-05-19T00:27:50.944Z,7.75
2023-05-19T00:30:22.991Z,7.70
2023-05-19T00:32:52.852Z,7.65
2023-05-19T00:35:23.861Z,7.60
2023-05-19T00:37:53.592Z,7.54
2023-05-19T00:40:26.775Z,7.48
2023-05-19T00:42:56.473Z,7.41
2023-05-19T00:45:27.378Z,7.35
2023-05-19T00:47:57.181Z,7.32
2023-05-19T00:50:27.547Z,7.26
2023-05-19T00:52:57.377Z,7.21
2023-05-19T00:55:31.332Z,7.15
2023-05-19T00:58:01.898Z,7.10
2023-05-19T01:00:33.000Z,7.04
2023-05-19T01:03:11.447Z,6.99
2023-05-19T01:05:44.878Z,6.94
2023-05-19T01:08:14.910Z,6.90
2023-05-19T01:10:47.237Z,6.87
2023-05-19T01:13:17.469Z,6.83
2023-05-19T01:16:01.335Z,6.79
2023-05-19T01:18:48.406Z,6.75
2023-05-19T01:21:46.746Z,6.70
2023-05-19T01:24:37.502Z,6.64
2023-05-19T01:27:27.554Z,6.57
2023-05-19T01:30:27.469Z,6.51
2023-05-19T01:33:00.743Z,6.46
2023-05-19T01:35:33.073Z,6.39
2023-05-19T01:38:04.077Z,6.33
2023-05-19T01:40:34.253Z,6.27
2023-05-19T01:43:05.145Z,6.22
2023-05-19T01:45:38.026Z,6.17
2023-05-19T01:48:10.875Z,6.14
2023-05-19T01:50:42.463Z,6.10
2023-05-19T01:53:13.001Z,6.08
2023-05-19T01:55:48.403Z,6.06
2023-05-19T01:58:24.538Z,6.03
2023-05-19T02:01:02.263Z,5.99
2023-05-19T02:03:44.182Z,5.96
2023-05-19T02:06:24.293Z,5.92
2023-05-19T02:09:01.333Z,5.90
2023-05-19T02:11:39.257Z,5.87
2023-05-19T02:14:12.775Z,5.85
2023-05-19T02:16:48.308Z,5.82
2023-05-19T02:19:26.297Z,5.79
2023-05-19T02:21:58.220Z,5.73
2023-05-19T02:24:28.481Z,5.69
2023-05-19T02:26:58.263Z,5.64
2023-05-19T02:29:28.098Z,5.60
2023-05-19T02:32:01.530Z,5.55
2023-05-19T02:34:31.651Z,5.54
2023-05-19T02:37:01.467Z,5.52
2023-05-19T02:39:35.313Z,5.49
2023-05-19T02:42:05.185Z,5.47
2023-05-19T02:44:34.938Z,5.46
2023-05-19T02:47:07.787Z,5.45
2023-05-19T02:49:38.052Z,5.41
2023-05-19T02:52:08.817Z,5.40
2023-05-19T02:54:38.660Z,5.37
2023-05-19T02:57:08.681Z,5.34
2023-05-19T02:59:38.433Z,5.32
2023-05-19T03:02:11.554Z,5.30
2023-05-19T03:04:42.213Z,5.28
2023-05-19T03:07:13.588Z,5.24
2023-05-19T03:09:43.434Z,5.23
2023-05-19T03:12:13.147Z,5.20
2023-05-19T03:14:44.437Z,5.18
2023-05-19T03:17:16.850Z,5.20
2023-05-19T03:19:46.637Z,5.28
2023-05-19T03:22:16.377Z,5.35
2023-05-19T03:24:46.094Z,5.50
2023-05-19T03:27:16.715Z,5.66
2023-05-19T03:29:46.488Z,5.86
2023-05-19T03:32:20.027Z,6.05
2023-05-19T03:34:49.965Z,6.22
2023-05-19T03:37:19.910Z,6.37
2023-05-19T03:39:49.658Z,6.50
2023-05-19T03:42:19.871Z,6.58
2023-05-19T03:44:49.657Z,6.70
2023-05-19T03:47:22.572Z,6.80
2023-05-19T03:49:52.283Z,6.93
2023-05-19T03:52:46.714Z,7.04
2023-05-19T03:55:26.561Z,7.12
2023-05-19T03:57:56.304Z,7.19
2023-05-19T04:00:26.076Z,7.26
2023-05-19T04:02:58.609Z,7.40
2023-05-19T04:05:28.377Z,7.50
2023-05-19T04:07:58.131Z,7.61
2023-05-19T04:10:27.894Z,7.73
2023-05-19T04:12:58.159Z,7.84
2023-05-19T04:15:29.485Z,7.98
2023-05-19T04:18:01.909Z,8.11
2023-05-19T04:20:31.805Z,8.20
2023-05-19T04:23:01.804Z,8.27
2023-05-19T04:25:31.596Z,8.33
2023-05-19T04:28:01.436Z,8.38
2023-05-19T04:30:31.487Z,8.45
2023-05-19T04:33:05.004Z,8.52
2023-05-19T04:35:35.063Z,8.55
2023-05-19T04:38:05.236Z,8.62
2023-05-19T04:40:37.289Z,8.67
2023-05-19T04:43:07.494Z,8.74
2023-05-19T04:45:37.867Z,8.78
2023-05-19T04:48:12.375Z,8.84
2023-05-19T04:50:48.959Z,8.91
2023-05-19T04:53:18.877Z,8.99
2023-05-19T04:55:48.664Z,9.08
2023-05-19T04:58:19.942Z,9.15
2023-05-19T05:00:50.892Z,9.25
2023-05-19T05:03:23.340Z,9.33
2023-05-19T05:05:54.498Z,9.42
2023-05-19T05:08:24.701Z,9.50
2023-05-19T05:10:57.359Z,9.58
2023-05-19T05:13:27.999Z,9.65
2023-05-19T05:15:58.720Z,9.74
2023-05-19T05:18:32.085Z,9.83
2023-05-19T05:21:02.514Z,9.90
2023-05-19T05:23:33.099Z,9.98
2023-05-19T05:26:03.266Z,10.05
2023-05-19T05:28:33.048Z,10.12
2023-05-19T05:31:02.900Z,10.20
2023-05-19T05:33:36.916Z,10.28
2023-05-19T05:36:07.552Z,10.39
2023-05-19T05:38:37.488Z,10.49
2023-05-19T05:41:07.580Z,10.62
2023-05-19T05:43:38.268Z,10.76
2023-05-19T05:46:08.445Z,10.89
2023-05-19T05:48:42.849Z,11.01
2023-05-19T05:51:13.924Z,11.15
2023-05-19T05:53:45.786Z,11.30
2023-05-19T05:56:18.003Z,11.44
2023-05-19T05:58:52.913Z,11.59
2023-05-19T06:01:24.172Z,11.76
2023-05-19T06:03:57.105Z,12.02
2023-05-19T06:06:27.466Z,12.27
2023-05-19T06:08:57.679Z,12.51
2023-05-19T06:11:28.933Z,12.79
2023-05-19T06:14:00.951Z,13.25
2023-05-19T06:16:48.251Z,14.22
2023-05-19T06:19:22.851Z,15.47
2023-05-19T06:21:52.656Z,16.61
2023-05-19T06:24:22.442Z,17.50
2023-05-19T06:26:52.280Z,18.26
2023-05-19T06:29:22.053Z,19.11
2023-05-19T06:31:53.472Z,19.97
2023-05-19T06:34:27.054Z,20.68
2023-05-19T06:36:56.914Z,21.28
2023-05-19T06:39:27.692Z,21.46
2023-05-19T06:41:57.669Z,21.65
2023-05-19T06:44:47.385Z,22.03
2023-05-19T06:47:18.930Z,22.66
2023-05-19T06:49:55.571Z,23.01
2023-05-19T06:52:28.768Z,23.46
2023-05-19T06:54:59.819Z,23.83
2023-05-19T06:57:29.673Z,23.49
2023-05-19T06:59:59.940Z,23.22
2023-05-19T07:02:29.962Z,23.10
2023-05-19T07:05:03.357Z,23.09
2023-05-19T07:07:33.132Z,22.92
2023-05-19T07:10:03.583Z,23.32
2023-05-19T07:12:34.984Z,23.37
2023-05-19T07:15:04.768Z,23.55
2023-05-19T07:17:35.035Z,23.99
2023-05-19T07:20:10.216Z,24.33
2023-05-19T07:22:40.296Z,24.97
2023-05-19T07:25:11.382Z,25.65
2023-05-19T07:27:42.205Z,26.14
2023-05-19T07:30:12.936Z,26.51
2023-05-19T07:32:42.763Z,26.58
2023-05-19T07:35:15.176Z,26.90
2023-05-19T07:37:44.930Z,27.76
2023-05-19T07:40:15.222Z,28.63
2023-05-19T07:42:44.956Z,28.26
2023-05-19T07:45:14.947Z,27.94
2023-05-19T07:47:44.922Z,27.75
2023-05-19T07:50:17.549Z,27.67
2023-05-19T07:52:47.340Z,28.13
2023-05-19T07:55:18.086Z,28.58
2023-05-19T07:57:47.840Z,28.60
2023-05-19T08:00:18.926Z,28.70
2023-05-19T08:02:48.896Z,28.74
2023-05-19T08:05:21.270Z,28.96
2023-05-19T08:07:51.152Z,28.76
2023-05-19T08:10:21.139Z,28.91
2023-05-19T08:12:51.052Z,28.79
2023-05-19T08:15:20.869Z,28.74
2023-05-19T08:17:50.809Z,28.89
2023-05-19T08:20:24.507Z,28.44
2023-05-19T08:22:54.375Z,28.40
2023-05-19T08:25:24.356Z,28.61
2023-05-19T08:27:54.085Z,28.69
2023-05-19T08:30:24.055Z,29.01
2023-05-19T08:32:53.922Z,29.34
2023-05-19T08:35:26.594Z,29.49
2023-05-19T08:37:56.589Z,29.53
2023-05-19T08:40:27.448Z,29.53
2023-05-19T08:42:57.302Z,28.24
2023-05-19T08:45:27.622Z,27.50
2023-05-19T08:47:57.520Z,27.11
2023-05-19T08:50:34.945Z,26.64
2023-05-19T08:53:21.110Z,27.44
2023-05-19T08:56:01.166Z,28.17
2023-05-19T08:58:30.969Z,28.79
2023-05-19T09:01:01.130Z,28.75
2023-05-19T09:03:31.207Z,28.63
2023-05-19T09:06:04.168Z,28.43
2023-05-19T09:08:34.073Z,27.75
2023-05-19T09:11:03.903Z,27.38
2023-05-19T09:13:33.749Z,27.85
2023-05-19T09:16:03.891Z,27.65
2023-05-19T09:18:34.077Z,28.25
2023-05-19T09:21:07.469Z,28.60
2023-05-19T09:23:37.646Z,28.13
2023-05-19T09:26:09.138Z,26.97
2023-05-19T09:28:39.590Z,25.95
2023-05-19T09:31:11.110Z,26.59
2023-05-19T09:33:45.518Z,27.83
2023-05-19T09:36:18.375Z,28.73
2023-05-19T09:38:48.642Z,29.03
2023-05-19T09:41:18.453Z,29.13
2023-05-19T09:43:57.546Z,29.49
2023-05-19T09:46:29.185Z,30.36
2023-05-19T09:49:00.713Z,31.44
2023-05-19T09:51:33.148Z,32.17
2023-05-19T09:54:03.098Z,31.84
2023-05-19T09:56:34.924Z,31.36
2023-05-19T09:59:05.059Z,30.66
2023-05-19T10:01:36.461Z,30.21
2023-05-19T10:04:06.725Z,30.03
2023-05-19T10:06:39.232Z,29.49
2023-05-19T10:09:09.383Z,28.61
2023-05-19T10:11:39.372Z,28.06
2023-05-19T10:14:09.260Z,27.49
2023-05-19T10:16:39.365Z,26.73
2023-05-19T10:19:10.784Z,25.99
2023-05-19T10:21:43.182Z,25.13
2023-05-19T10:24:13.425Z,24.27
2023-05-19T10:26:46.093Z,23.55
2023-05-19T10:29:19.034Z,22.87
2023-05-19T10:31:49.893Z,22.34
2023-05-19T10:34:40.772Z,22.19
2023-05-19T10:37:19.143Z,22.13
2023-05-19T10:39:49.656Z,21.87
2023-05-19T10:42:23.553Z,21.49
2023-05-19T10:44:59.781Z,21.08
2023-05-19T10:47:29.715Z,20.69
2023-05-19T10:49:59.568Z,20.37
2023-05-19T10:52:33.785Z,20.09
2023-05-19T10:55:04.991Z,19.91
2023-05-19T10:57:34.888Z,19.73
2023-05-19T11:00:11.905Z,19.59
2023-05-19T11:02:44.184Z,19.45
2023-05-19T11:05:16.905Z,19.53
2023-05-19T11:08:02.350Z,19.79
2023-05-19T11:10:32.467Z,19.87
2023-05-19T11:13:02.362Z,19.65
2023-05-19T11:15:32.471Z,19.42
2023-05-19T11:18:04.570Z,19.45
2023-05-19T11:20:35.335Z,19.61
2023-05-19T11:23:12.319Z,19.82
2023-05-19T11:25:49.727Z,20.10
2023-05-19T11:28:21.090Z,20.16
2023-05-19T11:30:52.584Z,19.98
2023-05-19T11:33:27.413Z,19.76
2023-05-19T11:36:00.651Z,19.59
2023-05-19T11:38:33.594Z,19.39
2023-05-19T11:41:03.703Z,19.22
2023-05-19T11:43:33.538Z,19.14
2023-05-19T11:46:04.268Z,19.08
2023-05-19T11:48:34.118Z,19.10
2023-05-19T11:51:03.980Z,19.20
2023-05-19T11:53:36.469Z,19.32
2023-05-19T11:56:06.930Z,19.42
2023-05-19T11:58:36.779Z,19.52
2023-05-19T12:01:07.317Z,19.48
2023-05-19T12:03:37.251Z,19.41
2023-05-19T12:06:08.667Z,19.52
2023-05-19T12:08:41.504Z,19.66
2023-05-19T12:11:11.366Z,19.77
2023-05-19T12:13:41.708Z,19.79
2023-05-19T12:16:11.850Z,19.76
2023-05-19T12:18:42.230Z,19.67
2023-05-19T12:21:12.311Z,19.44
2023-05-19T12:23:45.440Z,19.24
2023-05-19T12:26:15.275Z,19.17
2023-05-19T12:28:45.311Z,19.08
2023-05-19T12:31:15.357Z,19.03
2023-05-19T12:33:45.188Z,19.05
2023-05-19T12:36:15.668Z,19.10
2023-05-19T12:38:48.646Z,19.19
2023-05-19T12:41:18.598Z,19.24
2023-05-19T12:43:48.751Z,19.35
2023-05-19T12:46:19.121Z,19.34
2023-05-19T12:48:49.863Z,19.22
2023-05-19T12:51:20.633Z,19.17
2023-05-19T12:53:53.575Z,19.17
2023-05-19T12:56:24.451Z,19.05
2023-05-19T12:58:56.952Z,19.02
2023-05-19T13:01:26.972Z,19.08
2023-05-19T13:03:56.942Z,19.14
2023-05-19T13:06:27.742Z,19.21
2023-05-19T13:09:00.170Z,19.22
2023-05-19T13:11:30.211Z,19.19
2023-05-19T13:14:00.059Z,19.13
2023-05-19T13:16:30.233Z,19.12
2023-05-19T13:19:00.057Z,19.10
2023-05-19T13:21:29.861Z,19.15
2023-05-19T13:24:04.010Z,19.19
2023-05-19T13:26:34.009Z,19.32
2023-05-19T13:29:04.354Z,19.47
2023-05-19T13:31:34.315Z,19.63
2023-05-19T13:34:04.105Z,19.69
2023-05-19T13:36:35.143Z,19.64
2023-05-19T13:39:07.567Z,19.54
2023-05-19T13:41:38.548Z,19.35
2023-05-19T13:44:08.628Z,19.23
2023-05-19T13:46:45.628Z,19.17
2023-05-19T13:49:16.633Z,19.10
2023-05-19T13:51:46.670Z,19.07
2023-05-19T13:54:21.089Z,19.06
2023-05-19T13:56:51.157Z,19.05
2023-05-19T13:59:21.640Z,19.04
2023-05-19T14:01:51.446Z,19.06
2023-05-19T14:04:22.060Z,19.11
2023-05-19T14:06:52.089Z,19.12
2023-05-19T14:09:24.513Z,19.15
2023-05-19T14:11:54.590Z,19.19
2023-05-19T14:14:25.046Z,19.23
2023-05-19T14:16:54.889Z,19.27
2023-05-19T14:19:30.381Z,19.26
2023-05-19T14:22:00.408Z,19.23
2023-05-19T14:24:33.232Z,19.22
2023-05-19T14:27:02.998Z,19.23
2023-05-19T14:29:32.845Z,19.23
2023-05-19T14:32:03.198Z,19.19
2023-05-19T14:34:33.226Z,19.16
2023-05-19T14:37:03.017Z,19.11
2023-05-19T14:39:35.383Z,19.09
2023-05-19T14:42:05.211Z,19.17
2023-05-19T14:44:35.491Z,19.23
2023-05-19T14:47:07.553Z,19.29
2023-05-19T14:49:37.498Z,19.28
2023-05-19T14:52:07.787Z,19.20
2023-05-19T14:54:40.180Z,19.14
2023-05-19T14:57:10.068Z,19.08
2023-05-19T14:59:40.127Z,19.07
2023-05-19T15:02:11.757Z,19.06
2023-05-19T15:04:41.491Z,19.02
2023-05-19T15:07:11.756Z,19.02
2023-05-19T15:09:44.108Z,19.02
2023-05-19T15:12:13.883Z,19.02
2023-05-19T15:14:43.699Z,19.05
2023-05-19T15:17:13.565Z,19.08
2023-05-19T15:19:43.506Z,19.11
2023-05-19T15:22:13.299Z,19.14
2023-05-19T15:24:45.723Z,19.15
2023-05-19T15:27:15.598Z,19.15
2023-05-19T15:29:45.596Z,19.12
2023-05-19T15:32:15.386Z,19.11
2023-05-19T15:34:45.109Z,19.09
2023-05-19T15:37:15.084Z,19.07
2023-05-19T15:39:47.403Z,19.09
2023-05-19T15:42:17.168Z,19.08
2023-05-19T15:44:47.925Z,19.05
2023-05-19T15:47:17.737Z,19.00
2023-05-19T15:49:47.896Z,18.97
2023-05-19T15:52:17.707Z,18.92
2023-05-19T15:54:50.565Z,18.91
2023-05-19T15:57:20.358Z,18.93
2023-05-19T15:59:50.113Z,18.92
2023-05-19T16:02:20.031Z,18.88
2023-05-19T16:04:49.969Z,18.86
2023-05-19T16:07:19.881Z,18.86
2023-05-19T16:09:52.791Z,18.85
2023-05-19T16:12:22.541Z,18.80
2023-05-19T16:14:52.310Z,18.77
2023-05-19T16:17:22.076Z,18.76
2023-05-19T16:19:51.829Z,18.77
2023-05-19T16:22:24.808Z,18.76
2023-05-19T16:24:57.336Z,18.72
2023-05-19T16:27:27.388Z,18.73
2023-05-19T16:29:58.117Z,18.70
2023-05-19T16:32:27.911Z,18.66
2023-05-19T16:34:57.708Z,18.64
2023-05-19T16:37:27.510Z,18.63
2023-05-19T16:39:59.947Z,18.63
2023-05-19T16:42:29.897Z,18.62
2023-05-19T16:44:59.658Z,18.59
2023-05-19T16:47:29.457Z,18.57
2023-05-19T16:49:59.304Z,18.57
2023-05-19T16:52:29.136Z,18.56
2023-05-19T16:55:01.497Z,18.51
2023-05-19T16:57:31.253Z,18.46
2023-05-19T17:00:01.060Z,18.42
2023-05-19T17:02:31.189Z,18.39
2023-05-19T17:05:01.262Z,18.36
2023-05-19T17:07:31.896Z,18.33
2023-05-19T17:10:04.224Z,18.34
2023-05-19T17:12:34.000Z,18.34
2023-05-19T17:15:03.808Z,18.31
2023-05-19T17:17:33.578Z,18.27
2023-05-19T17:20:03.507Z,18.26
2023-05-19T17:22:33.260Z,18.24
2023-05-19T17:25:05.616Z,18.21
2023-05-19T17:27:35.380Z,18.18
2023-05-19T17:30:05.341Z,18.16
2023-05-19T17:32:38.640Z,18.14
2023-05-19T17:35:10.066Z,18.10
2023-05-19T17:37:39.880Z,18.06
2023-05-19T17:40:14.179Z,18.02
2023-05-19T17:42:43.975Z,17.97
2023-05-19T17:45:14.771Z,17.93
2023-05-19T17:47:44.609Z,17.90
2023-05-19T17:50:14.395Z,17.89
2023-05-19T17:52:44.850Z,17.87
2023-05-19T17:55:18.198Z,17.84
2023-05-19T17:57:49.318Z,17.83
2023-05-19T18:00:20.129Z,17.78
2023-05-19T18:02:51.168Z,17.76
2023-05-19T18:05:22.127Z,17.72
2023-05-19T18:07:52.690Z,17.68
2023-05-19T18:10:25.493Z,17.63
2023-05-19T18:12:55.223Z,17.57
2023-05-19T18:15:25.045Z,17.54
2023-05-19T18:17:54.851Z,17.48
2023-05-19T18:20:24.649Z,17.45
2023-05-19T18:22:54.402Z,17.41
2023-05-19T18:25:27.053Z,17.37
2023-05-19T18:27:57.321Z,17.33
2023-05-19T18:30:27.185Z,17.29
2023-05-19T18:32:56.971Z,17.23
2023-05-19T18:35:26.852Z,17.17
2023-05-19T18:37:58.117Z,17.11
2023-05-19T18:40:30.612Z,17.07
2023-05-19T18:43:00.357Z,17.00
2023-05-19T18:45:30.128Z,16.94
2023-05-19T18:47:59.929Z,16.89
2023-05-19T18:50:29.750Z,16.84
2023-05-19T18:52:59.512Z,16.77
2023-05-19T18:55:31.961Z,16.70
2023-05-19T18:58:01.916Z,16.65
2023-05-19T19:00:31.960Z,16.61
2023-05-19T19:03:01.936Z,16.55
2023-05-19T19:05:32.056Z,16.50
2023-05-19T19:08:02.662Z,16.44
2023-05-19T19:10:39.189Z,16.37
2023-05-19T19:13:09.039Z,16.35
2023-05-19T19:15:39.968Z,16.32
2023-05-19T19:18:09.791Z,16.26
2023-05-19T19:20:39.624Z,16.19
2023-05-19T19:23:09.445Z,16.12
2023-05-19T19:25:41.923Z,16.04
2023-05-19T19:28:11.917Z,15.97
2023-05-19T19:30:41.669Z,15.90
2023-05-19T19:33:11.589Z,15.86
2023-05-19T19:35:41.402Z,15.84
2023-05-19T19:38:11.308Z,15.80
2023-05-19T19:40:43.683Z,15.75
2023-05-19T19:43:13.484Z,15.74
2023-05-19T19:45:43.271Z,15.68
2023-05-19T19:48:13.149Z,15.61
2023-05-19T19:50:43.006Z,15.56
2023-05-19T19:53:12.794Z,15.52
2023-05-19T19:55:45.193Z,15.47
2023-05-19T19:58:14.984Z,15.42
2023-05-19T20:00:44.732Z,15.36
2023-05-19T20:03:14.621Z,15.29
2023-05-19T20:05:44.803Z,15.26
2023-05-19T20:08:16.059Z,15.21
2023-05-19T20:10:49.151Z,15.18
2023-05-19T20:13:19.188Z,15.14
2023-05-19T20:15:49.603Z,15.13
2023-05-19T20:18:19.391Z,15.12
2023-05-19T20:20:49.234Z,15.07
2023-05-19T20:23:18.968Z,15.04
2023-05-19T20:26:09.994Z,14.99
2023-05-19T20:28:40.652Z,14.93
2023-05-19T20:31:10.642Z,14.88
2023-05-19T20:33:40.522Z,14.83
2023-05-19T20:36:11.145Z,14.78
2023-05-19T20:38:40.951Z,14.75
2023-05-19T20:41:13.506Z,14.69
2023-05-19T20:43:43.324Z,14.62
2023-05-19T20:46:13.951Z,14.56
2023-05-19T20:48:43.759Z,14.54
2023-05-19T20:51:13.553Z,14.48
2023-05-19T20:53:43.457Z,14.43
2023-05-19T20:56:15.885Z,14.36
2023-05-19T20:58:45.721Z,14.35
2023-05-19T21:01:15.590Z,14.34
2023-05-19T21:03:45.416Z,14.30
2023-05-19T21:06:15.255Z,14.25
2023-05-19T21:08:45.006Z,14.18
2023-05-19T21:11:17.421Z,14.12
2023-05-19T21:13:47.153Z,14.04
2023-05-19T21:16:16.944Z,14.01
2023-05-19T21:18:46.799Z,14.00
2023-05-19T21:21:16.577Z,13.97
2023-05-19T21:23:46.345Z,13.95
2023-05-19T21:26:18.703Z,13.96
2023-05-19T21:28:48.433Z,13.94
2023-05-19T21:31:18.382Z,13.91
2023-05-19T21:33:48.156Z,13.88
2023-05-19T21:36:18.451Z,13.85
2023-05-19T21:38:48.184Z,13.85
2023-05-19T21:41:21.374Z,13.84
2023-05-19T21:43:51.235Z,13.83
2023-05-19T21:46:21.109Z,13.84
2023-05-19T21:48:50.881Z,13.83
2023-05-19T21:51:20.660Z,13.83
2023-05-19T21:53:50.407Z,13.81
2023-05-19T21:56:22.897Z,13.73
2023-05-19T21:58:52.673Z,13.68
2023-05-19T22:01:22.443Z,13.63
2023-05-19T22:03:52.350Z,13.59
2023-05-19T22:06:22.176Z,13.56
2023-05-19T22:08:51.990Z,13.54
2023-05-19T22:11:24.330Z,13.50
2023-05-19T22:13:54.863Z,13.48
2023-05-19T22:16:24.795Z,13.44
2023-05-19T22:18:54.614Z,13.44
2023-05-19T22:21:24.421Z,13.41
2023-05-19T22:23:54.991Z,13.40
2023-05-19T22:26:27.355Z,13.36
2023-05-19T22:28:57.873Z,13.33
2023-05-19T22:31:27.620Z,13.35
2023-05-19T22:33:57.471Z,13.34
2023-05-19T22:36:27.238Z,13.31
2023-05-19T22:38:57.134Z,13.28
2023-05-19T22:41:29.561Z,13.25
2023-05-19T22:43:59.335Z,13.21
2023-05-19T22:46:29.192Z,13.19
2023-05-19T22:48:59.082Z,13.18
2023-05-19T22:51:28.961Z,13.18
2023-05-19T22:53:58.736Z,13.19
2023-05-19T22:56:31.068Z,13.20
2023-05-19T22:59:00.864Z,13.17
2023-05-19T23:01:30.762Z,13.13
2023-05-19T23:04:00.620Z,13.10
2023-05-19T23:06:30.391Z,13.07
2023-05-19T23:09:04.934Z,12.99
2023-05-19T23:11:37.424Z,12.90
2023-05-19T23:14:07.264Z,12.81
2023-05-19T23:16:37.017Z,12.73
2023-05-19T23:19:06.892Z,12.65
2023-05-19T23:21:36.688Z,12.58
2023-05-19T23:24:06.749Z,12.52
2023-05-19T23:26:39.111Z,12.45
2023-05-19T23:29:08.867Z,12.40
2023-05-19T23:31:38.647Z,12.33
2023-05-19T23:34:08.588Z,12.27
2023-05-19T23:36:38.376Z,12.22
2023-05-19T23:39:08.147Z,12.16
2023-05-19T23:41:40.763Z,12.11
2023-05-19T23:44:11.516Z,12.06
2023-05-19T23:46:41.458Z,11.96
2023-05-19T23:49:11.225Z,11.88
2023-05-19T23:51:41.081Z,11.82
2023-05-19T23:54:11.166Z,11.77
2023-05-19T23:56:43.616Z,11.71
2023-05-19T23:59:13.392Z,11.65
